createdAt,value
2023-02-09T00:03:17.414Z,45.60
2023-02-09T00:07:16.153Z,49.80
2023-02-09T00:11:14.128Z,45.30
2023-02-09T00:15:12.138Z,42.70
2023-02-09T00:19:10.114Z,41.90
2023-02-09T00:23:08.142Z,44.00
2023-02-09T00:27:06.070Z,43.00
2023-02-09T00:31:05.120Z,38.20
2023-02-09T00:35:04.072Z,37.70
2023-02-09T00:39:02.134Z,42.00
2023-02-09T00:43:00.016Z,40.40
2023-02-09T00:46:59.044Z,38.80
2023-02-09T00:50:56.992Z,40.20
2023-02-09T00:54:56.092Z,33.40
2023-02-09T00:58:53.966Z,35.90
2023-02-09T01:02:51.978Z,37.20
2023-02-09T01:06:50.013Z,34.60
2023-02-09T01:10:47.974Z,36.20
2023-02-09T01:14:46.010Z,34.20
2023-02-09T01:18:44.097Z,35.20
2023-02-09T01:22:41.965Z,31.40
2023-02-09T01:26:39.968Z,29.40
2023-02-09T01:30:37.990Z,27.30
2023-02-09T01:34:35.918Z,29.20
2023-02-09T01:38:34.130Z,31.10
2023-02-09T01:42:35.075Z,28.90
2023-02-09T01:46:32.961Z,25.00
2023-02-09T01:50:31.900Z,26.60
2023-02-09T01:54:34.924Z,26.40
2023-02-09T01:58:34.973Z,26.20
2023-02-09T02:02:33.886Z,26.70
2023-02-09T02:06:32.918Z,23.70
2023-02-09T02:10:32.020Z,23.30
2023-02-09T02:14:52.927Z,23.80
2023-02-09T02:18:50.856Z,26.20
2023-02-09T02:23:13.969Z,25.80
2023-02-09T02:27:15.853Z,24.80
2023-02-09T02:31:28.979Z,27.90
2023-02-09T02:36:00.808Z,28.30
2023-02-09T02:40:13.872Z,27.00
2023-02-09T02:44:17.898Z,24.30
2023-02-09T02:48:49.980Z,23.80
2023-02-09T02:52:47.855Z,23.50
2023-02-09T02:56:51.880Z,21.30
2023-02-09T03:00:55.771Z,23.00
2023-02-09T03:04:55.856Z,22.50
2023-02-09T03:09:09.053Z,23.80
2023-02-09T03:13:21.871Z,25.00
2023-02-09T03:17:40.770Z,22.60
2023-02-09T03:22:05.806Z,22.30
2023-02-09T03:26:06.782Z,26.10
2023-02-09T03:30:08.908Z,25.60
2023-02-09T03:34:06.731Z,26.60
2023-02-09T03:38:04.791Z,23.40
2023-02-09T03:42:02.820Z,23.60
2023-02-09T03:46:00.742Z,24.40
2023-02-09T03:49:58.717Z,27.50
2023-02-09T03:53:58.208Z,29.90
2023-02-09T03:57:55.812Z,25.50
2023-02-09T04:01:53.844Z,25.90
2023-02-09T04:05:51.698Z,29.20
2023-02-09T04:09:49.705Z,27.10
2023-02-09T04:13:47.785Z,25.30
2023-02-09T04:17:45.796Z,29.20
2023-02-09T04:21:43.708Z,26.00
2023-02-09T04:25:51.764Z,24.70
2023-02-09T04:29:49.750Z,28.30
2023-02-09T04:33:47.814Z,24.20
2023-02-09T04:37:45.795Z,26.40
2023-02-09T04:41:43.662Z,27.30
2023-02-09T04:45:41.657Z,27.70
2023-02-09T04:49:39.934Z,27.70
2023-02-09T04:53:37.633Z,26.90
2023-02-09T04:57:52.789Z,26.00
2023-02-09T05:01:50.632Z,24.60
2023-02-09T05:05:52.659Z,25.30
2023-02-09T05:09:50.759Z,27.70
2023-02-09T05:13:48.802Z,24.80
2023-02-09T05:17:47.580Z,25.70
2023-02-09T05:21:45.661Z,26.50
2023-02-09T05:25:43.603Z,29.40
2023-02-09T05:29:41.587Z,27.00
2023-02-09T05:33:40.584Z,28.40
2023-02-09T05:37:38.620Z,24.20
2023-02-09T05:41:54.621Z,25.60
2023-02-09T05:45:52.614Z,26.10
2023-02-09T05:49:50.590Z,28.80
2023-02-09T05:53:48.586Z,28.70
2023-02-09T05:57:46.634Z,26.40
2023-02-09T06:01:44.594Z,28.60
2023-02-09T06:05:42.542Z,30.60
2023-02-09T06:09:42.591Z,32.30
2023-02-09T06:13:40.598Z,31.70
2023-02-09T06:17:38.574Z,32.10
2023-02-09T06:21:36.488Z,34.00
2023-02-09T06:25:34.540Z,33.80
2023-02-09T06:29:32.530Z,33.70
2023-02-09T06:33:30.594Z,31.10
2023-02-09T06:37:28.540Z,32.40
2023-02-09T06:41:26.552Z,28.10
2023-02-09T06:45:28.479Z,27.90
2023-02-09T06:49:28.478Z,27.10
2023-02-09T06:53:26.429Z,27.50
2023-02-09T06:57:24.470Z,27.70
2023-02-09T07:01:07.841Z,27.50
2023-02-09T07:04:33.979Z,26.50
2023-02-09T07:07:58.165Z,29.00
2023-02-09T07:11:22.925Z,28.20
2023-02-09T07:14:49.270Z,28.60
2023-02-09T07:18:13.446Z,26.90
2023-02-09T07:21:37.485Z,29.90
2023-02-09T07:25:01.496Z,29.90
2023-02-09T07:28:25.390Z,32.70
2023-02-09T07:31:49.288Z,27.70
2023-02-09T07:35:13.188Z,28.10
2023-02-09T07:38:37.932Z,29.50
2023-02-09T07:42:02.091Z,28.80
2023-02-09T07:45:43.180Z,33.00
2023-02-09T07:49:07.244Z,30.80
2023-02-09T07:52:31.252Z,29.90
2023-02-09T07:55:55.655Z,29.40
2023-02-09T07:59:19.520Z,28.00
2023-02-09T08:02:45.268Z,27.20
2023-02-09T08:06:19.631Z,27.30
2023-02-09T08:09:45.196Z,32.80
2023-02-09T08:13:09.558Z,29.50
2023-02-09T08:16:35.398Z,31.20
2023-02-09T08:23:34.026Z,29.90
2023-02-09T08:26:57.970Z,29.80
2023-02-09T08:30:21.880Z,34.70
2023-02-09T08:33:48.362Z,31.70
2023-02-09T08:37:14.812Z,34.90
2023-02-09T08:40:41.566Z,31.10
2023-02-09T08:44:05.548Z,34.80
2023-02-09T08:47:29.466Z,32.80
2023-02-09T08:50:53.527Z,33.00
2023-02-09T08:54:17.594Z,35.30
2023-02-09T08:57:44.479Z,33.40
2023-02-09T09:01:10.349Z,29.80
2023-02-09T09:07:58.509Z,29.50
2023-02-09T09:11:22.367Z,33.00
2023-02-09T09:14:46.417Z,28.40
2023-02-09T09:18:11.064Z,26.50
2023-02-09T09:21:35.060Z,28.50
2023-02-09T09:24:59.027Z,29.60
2023-02-09T09:28:25.472Z,30.80
2023-02-09T09:31:49.963Z,29.10
2023-02-09T09:35:13.947Z,27.90
2023-02-09T09:38:39.397Z,28.30
2023-02-09T09:42:06.266Z,29.50
2023-02-09T09:45:33.290Z,29.10
2023-02-09T09:48:59.268Z,29.60
2023-02-09T09:52:45.727Z,31.10
2023-02-09T09:56:11.793Z,31.00
2023-02-09T09:59:38.872Z,31.30
2023-02-09T10:03:03.945Z,32.90
2023-02-09T10:06:34.381Z,30.00
2023-02-09T10:10:21.266Z,31.00
2023-02-09T10:13:54.112Z,34.60
2023-02-09T10:17:18.180Z,32.70
2023-02-09T10:20:45.646Z,31.60
2023-02-09T10:24:14.757Z,32.50
2023-02-09T10:27:46.656Z,33.40
2023-02-09T10:31:16.317Z,29.00
2023-02-09T10:34:41.035Z,31.20
2023-02-09T10:38:05.564Z,31.90
2023-02-09T10:41:34.914Z,33.10
2023-02-09T10:45:08.524Z,32.30
2023-02-09T10:48:43.566Z,33.00
2023-02-09T10:52:13.581Z,33.20
2023-02-09T10:55:42.882Z,34.40
2023-02-09T10:59:21.867Z,32.40
2023-02-09T11:03:01.881Z,33.60
2023-02-09T11:06:26.654Z,33.90
2023-02-09T11:09:53.282Z,35.00
2023-02-09T11:13:25.103Z,31.80
2023-02-09T11:17:07.267Z,33.20
2023-02-09T11:20:43.712Z,34.70
2023-02-09T11:24:19.749Z,36.40
2023-02-09T11:28:48.224Z,34.80
2023-02-09T11:32:26.593Z,35.20
2023-02-09T11:36:13.474Z,35.80
2023-02-09T11:40:00.857Z,39.50
2023-02-09T11:43:36.948Z,37.00
2023-02-09T11:47:11.310Z,33.00
2023-02-09T11:51:16.682Z,36.60
2023-02-09T11:54:41.084Z,37.80
2023-02-09T11:58:30.426Z,36.00
2023-02-09T12:02:03.859Z,39.00
2023-02-09T12:05:28.599Z,37.10
2023-02-09T12:09:23.132Z,34.40
2023-02-09T12:12:54.699Z,32.20
2023-02-09T12:16:22.054Z,33.70
2023-02-09T12:19:55.236Z,31.90
2023-02-09T12:23:31.694Z,33.80
2023-02-09T12:26:57.595Z,36.60
2023-02-09T12:34:14.886Z,37.40
2023-02-09T12:38:19.078Z,37.10
2023-02-09T12:41:45.485Z,39.30
2023-02-09T12:45:40.125Z,42.70
2023-02-09T12:49:20.926Z,43.40
2023-02-09T12:53:23.349Z,40.90
2023-02-09T12:56:48.433Z,39.90
2023-02-09T13:00:13.516Z,44.00
2023-02-09T13:03:53.125Z,43.80
2023-02-09T13:07:28.134Z,41.80
2023-02-09T13:10:57.199Z,39.40
2023-02-09T13:14:24.432Z,37.60
2023-02-09T13:18:19.688Z,37.30
2023-02-09T13:22:20.839Z,39.80
2023-02-09T13:25:45.250Z,37.00
2023-02-09T13:29:20.534Z,39.00
2023-02-09T13:33:33.407Z,42.90
2023-02-09T13:37:40.915Z,44.10
2023-02-09T13:41:09.186Z,44.50
2023-02-09T13:44:34.879Z,41.90
2023-02-09T13:51:24.839Z,44.60
2023-02-09T13:54:49.083Z,46.00
2023-02-09T13:58:20.797Z,44.40
2023-02-09T14:01:47.123Z,46.30
2023-02-09T14:05:11.296Z,45.90
2023-02-09T14:08:36.294Z,46.20
2023-02-09T14:12:04.893Z,46.70
2023-02-09T14:15:51.592Z,44.60
2023-02-09T14:19:48.742Z,44.20
2023-02-09T14:23:16.944Z,44.60
2023-02-09T14:27:05.047Z,40.50
2023-02-09T14:30:51.027Z,38.40
2023-02-09T14:34:49.905Z,39.00
2023-02-09T14:38:57.912Z,38.70
2023-02-09T14:43:17.907Z,41.80
2023-02-09T14:47:15.886Z,42.70
2023-02-09T14:51:28.911Z,44.60
2023-02-09T14:55:36.001Z,39.10
2023-02-09T14:59:34.805Z,36.60
2023-02-09T15:03:35.848Z,36.20
2023-02-09T15:07:44.793Z,38.30
2023-02-09T15:12:01.818Z,37.90
2023-02-09T15:15:59.853Z,42.00
2023-02-09T15:19:57.816Z,40.30
2023-02-09T15:23:55.852Z,40.20
2023-02-09T15:28:00.935Z,45.00
2023-02-09T15:31:59.891Z,40.90
2023-02-09T15:35:59.315Z,46.00
2023-02-09T15:39:56.890Z,48.60
2023-02-09T15:44:11.738Z,54.00
2023-02-09T15:48:09.743Z,54.60
2023-02-09T15:52:07.745Z,54.00
2023-02-09T15:56:05.968Z,46.10
2023-02-09T16:00:03.832Z,45.90
2023-02-09T16:04:12.875Z,46.30
2023-02-09T16:08:12.752Z,49.20
2023-02-09T16:12:11.797Z,50.30
2023-02-09T16:16:16.982Z,54.20
2023-02-09T16:20:15.709Z,57.90
2023-02-09T16:24:16.848Z,59.00
2023-02-09T16:28:14.796Z,59.60
2023-02-09T16:32:12.728Z,64.90
2023-02-09T16:36:16.803Z,59.70
2023-02-09T16:40:15.679Z,59.00
2023-02-09T16:44:14.676Z,52.30
2023-02-09T16:48:13.614Z,55.20
2023-02-09T16:52:15.793Z,52.80
2023-02-09T16:56:18.725Z,49.70
2023-02-09T17:00:16.668Z,51.70
2023-02-09T17:04:15.775Z,53.50
2023-02-09T17:08:19.689Z,48.90
2023-02-09T17:12:17.669Z,49.10
2023-02-09T17:16:19.662Z,45.60
2023-02-09T17:20:17.654Z,48.50
2023-02-09T17:24:16.670Z,47.00
2023-02-09T17:28:14.719Z,45.00
2023-02-09T17:32:16.600Z,51.90
2023-02-09T17:36:26.305Z,53.30
2023-02-09T17:40:34.647Z,49.50
2023-02-09T17:44:46.139Z,49.00
2023-02-09T17:48:44.631Z,49.50
2023-02-09T17:52:42.652Z,51.00
2023-02-09T17:56:40.655Z,51.20
2023-02-09T18:00:39.550Z,48.00
2023-02-09T18:04:40.546Z,44.90
2023-02-09T18:08:39.746Z,45.90
2023-02-09T18:12:40.559Z,39.90
2023-02-09T18:16:38.630Z,43.20
2023-02-09T18:20:42.593Z,40.20
2023-02-09T18:24:44.576Z,44.30
2023-02-09T18:28:43.537Z,41.70
2023-02-09T18:32:41.543Z,40.50
2023-02-09T18:36:39.533Z,41.60
2023-02-09T18:40:38.574Z,42.90
2023-02-09T18:44:40.502Z,44.10
2023-02-09T18:48:38.576Z,42.00
2023-02-09T18:52:36.500Z,40.90
2023-02-09T18:56:36.487Z,42.50
2023-02-09T19:00:35.480Z,41.90
2023-02-09T19:04:34.217Z,38.50
2023-02-09T19:08:32.469Z,39.00
2023-02-09T19:12:30.673Z,38.60
2023-02-09T19:16:28.592Z,38.30
2023-02-09T19:20:31.655Z,37.60
2023-02-09T19:24:30.323Z,34.70
2023-02-09T19:28:29.406Z,35.30
2023-02-09T19:32:29.566Z,37.30
2023-02-09T19:36:28.585Z,37.20
2023-02-09T19:40:34.541Z,35.70
2023-02-09T19:44:32.509Z,35.80
2023-02-09T19:48:30.387Z,39.40
2023-02-09T19:52:28.471Z,37.10
2023-02-09T19:56:30.431Z,36.50
2023-02-09T20:00:31.435Z,35.60
2023-02-09T20:04:30.463Z,35.10
2023-02-09T20:08:32.502Z,35.20
2023-02-09T20:12:30.538Z,36.20
2023-02-09T20:16:33.689Z,34.40
2023-02-09T20:20:31.347Z,34.90
2023-02-09T20:24:29.394Z,35.20
2023-02-09T20:28:27.401Z,34.60
2023-02-09T20:32:25.460Z,32.90
2023-02-09T20:36:25.513Z,31.00
2023-02-09T20:40:23.357Z,34.00
2023-02-09T20:44:38.333Z,31.70
2023-02-09T20:48:36.352Z,30.80
2023-02-09T20:52:34.394Z,32.10
2023-02-09T20:56:32.479Z,31.40
2023-02-09T21:00:30.331Z,33.40
2023-02-09T21:04:28.499Z,33.70
2023-02-09T21:08:26.273Z,30.00
2023-02-09T21:12:24.403Z,30.40
2023-02-09T21:16:23.300Z,30.20
2023-02-09T21:20:21.439Z,30.80
2023-02-09T21:24:19.371Z,28.90
2023-02-09T21:28:17.442Z,29.80
2023-02-09T21:32:17.245Z,27.10
2023-02-09T21:36:15.343Z,27.80
2023-02-09T21:40:13.246Z,29.40
2023-02-09T21:44:13.351Z,29.00
2023-02-09T21:48:13.236Z,30.10
2023-02-09T21:52:11.256Z,29.40
2023-02-09T21:56:09.217Z,27.70
2023-02-09T22:00:11.249Z,29.20
2023-02-09T22:04:09.211Z,25.60
2023-02-09T22:08:07.230Z,29.50
2023-02-09T22:12:05.162Z,29.10
2023-02-09T22:16:03.270Z,26.80
2023-02-09T22:20:01.133Z,29.70
2023-02-09T22:23:59.262Z,27.90
2023-02-09T22:27:57.254Z,31.10
2023-02-09T22:31:57.593Z,31.20
2023-02-09T22:35:56.186Z,26.10
2023-02-09T22:39:54.143Z,27.60
2023-02-09T22:43:52.139Z,27.20
2023-02-09T22:47:51.227Z,27.50
2023-02-09T22:51:50.232Z,26.80
2023-02-09T22:55:48.526Z,24.60
2023-02-09T22:59:46.197Z,27.50
2023-02-09T23:03:44.472Z,26.70
2023-02-09T23:07:42.169Z,28.50
2023-02-09T23:11:40.157Z,29.30
2023-02-09T23:15:38.272Z,26.50
2023-02-09T23:19:36.209Z,28.20
2023-02-09T23:23:34.289Z,27.00
2023-02-09T23:27:32.156Z,25.80
2023-02-09T23:31:33.142Z,26.90
2023-02-09T23:35:31.088Z,27.10
2023-02-09T23:39:33.073Z,25.30
2023-02-09T23:43:31.110Z,25.80
2023-02-09T23:47:29.175Z,28.10
2023-02-09T23:51:31.299Z,24.90
2023-02-09T23:55:36.042Z,25.40
2023-02-09T23:59:34.129Z,28.00
